createdAt,value
2022-07-28T05:04:09.024Z,24.00
2022-07-28T06:07:04.665Z,24.00
2022-07-28T08:59:11.621Z,26.00
2022-07-28T09:02:05.243Z,26.00
2022-07-28T09:05:08.465Z,26.00
2022-07-28T09:08:14.067Z,26.00
2022-07-28T11:08:44.363Z,26.40
2022-07-28T11:11:48.180Z,26.40
2022-07-28T11:14:43.047Z,26.40
2022-07-28T11:41:24.916Z,26.80
2022-07-28T11:43:58.904Z,26.80
2022-07-28T11:46:55.804Z,26.90
2022-07-28T11:49:32.381Z,26.90
2022-07-28T11:52:35.847Z,26.80
2022-07-28T11:55:55.777Z,26.90
2022-07-28T12:02:28.310Z,26.90
2022-07-28T12:05:34.295Z,26.80
2022-07-28T12:08:49.668Z,26.80
2022-07-28T13:14:49.725Z,27.40
2022-07-28T13:17:39.009Z,27.40
2022-07-28T13:20:24.114Z,27.40
2022-07-28T13:23:14.692Z,27.40
2022-07-28T13:26:00.744Z,27.50
2022-07-28T13:28:45.134Z,27.50
2022-07-28T13:31:45.259Z,27.50
2022-07-28T13:34:31.102Z,27.60
2022-07-28T13:37:13.909Z,27.60
2022-07-28T13:39:57.260Z,27.60
2022-07-28T13:42:52.847Z,27.70
2022-07-28T13:45:40.389Z,27.70
2022-07-28T13:48:26.901Z,27.70
2022-07-28T13:51:19.720Z,27.70
2022-07-28T13:54:03.424Z,27.70
2022-07-28T13:56:59.959Z,27.70
2022-07-28T13:59:32.385Z,27.80
2022-07-28T14:02:16.984Z,27.70
2022-07-28T14:05:03.186Z,27.70
2022-07-28T14:08:07.541Z,27.70
2022-07-28T14:11:03.089Z,27.60
2022-07-28T14:13:48.825Z,27.60
2022-07-28T14:16:27.695Z,27.50
2022-07-28T14:19:23.279Z,27.40
2022-07-28T14:22:19.706Z,27.40
2022-07-28T14:25:19.677Z,27.40
2022-07-28T14:28:24.678Z,27.30
2022-07-28T14:31:34.502Z,27.20
2022-07-28T14:34:16.800Z,27.10
2022-07-28T14:37:09.058Z,27.10
2022-07-28T14:40:27.380Z,27.00
2022-07-28T14:43:05.479Z,27.10
2022-07-28T14:46:14.597Z,27.10
2022-07-28T14:48:58.694Z,27.10
2022-07-28T14:51:44.346Z,27.10
2022-07-28T14:54:40.935Z,27.10
2022-07-28T14:57:50.325Z,27.20
2022-07-28T15:00:39.265Z,27.10
2022-07-28T15:03:36.467Z,27.20
2022-07-28T15:06:16.749Z,27.10
2022-07-28T15:09:16.834Z,27.20
2022-07-28T15:12:00.877Z,27.20
2022-07-28T15:15:04.192Z,27.20
2022-07-28T15:17:39.267Z,27.10
2022-07-28T15:20:34.939Z,27.10
2022-07-28T15:23:33.815Z,27.10
2022-07-28T15:26:39.805Z,27.10
2022-07-28T15:29:58.350Z,27.10
2022-07-28T15:33:27.863Z,27.10
2022-07-28T15:36:51.896Z,27.10
2022-07-28T15:40:15.923Z,27.10
2022-07-28T15:43:12.731Z,27.10
2022-07-28T15:46:22.005Z,27.10
2022-07-28T15:49:23.262Z,27.10
2022-07-28T15:52:29.469Z,27.10
2022-07-28T15:55:17.255Z,27.10
2022-07-28T15:58:17.270Z,27.10
2022-07-28T16:01:34.132Z,27.10
2022-07-28T16:04:53.227Z,27.00
2022-07-28T16:08:11.326Z,27.00
2022-07-28T16:11:22.183Z,27.00
2022-07-28T16:14:47.400Z,26.90
2022-07-28T16:17:52.366Z,27.00
2022-07-28T16:20:52.262Z,27.00
2022-07-28T16:32:12.563Z,27.00
2022-07-28T17:26:04.931Z,26.90
2022-07-28T17:29:00.853Z,26.90
2022-07-28T17:32:18.877Z,26.80
2022-07-28T17:35:36.914Z,26.90
2022-07-28T17:38:54.944Z,26.90
2022-07-28T17:42:21.005Z,26.90
2022-07-28T17:45:43.006Z,26.80
2022-07-28T17:49:01.132Z,26.80
2022-07-28T17:52:19.073Z,26.80
2022-07-28T17:55:57.764Z,26.80
2022-07-28T17:59:25.145Z,26.80
2022-07-28T18:02:49.218Z,26.80
2022-07-28T18:06:07.198Z,26.80
2022-07-28T18:09:25.227Z,26.80
2022-07-28T18:12:43.252Z,26.80
2022-07-28T18:16:13.325Z,26.80
2022-07-28T18:19:31.307Z,26.70
2022-07-28T18:22:49.338Z,26.70
2022-07-28T18:26:07.364Z,26.70
2022-07-28T18:29:25.392Z,26.70
2022-07-28T18:33:01.424Z,26.70
2022-07-28T18:36:19.454Z,26.70
2022-07-28T18:39:37.477Z,26.70
2022-07-28T18:42:55.504Z,26.70
2022-07-28T18:46:13.621Z,26.70
2022-07-28T18:49:43.602Z,26.60
2022-07-28T18:53:01.590Z,26.60
2022-07-28T18:56:19.617Z,26.60
2022-07-28T18:59:43.224Z,26.60
2022-07-28T19:03:01.773Z,26.60
2022-07-28T19:06:25.703Z,26.60
2022-07-28T19:13:01.759Z,26.60
2022-07-28T19:16:19.856Z,26.60
2022-07-28T19:19:37.822Z,26.60
2022-07-28T19:23:07.861Z,26.60
2022-07-28T19:26:25.884Z,26.60
2022-07-28T19:33:01.944Z,26.60
2022-07-28T19:36:10.081Z,26.50
2022-07-28T19:39:13.999Z,26.60
2022-07-28T19:42:32.029Z,26.50
2022-07-28T19:45:50.135Z,26.50
2022-07-28T19:49:08.162Z,26.50
2022-07-28T19:52:26.115Z,26.50
2022-07-28T19:55:56.145Z,26.50
2022-07-28T19:59:14.174Z,26.50
2022-07-28T20:02:32.248Z,26.50
2022-07-28T20:05:50.234Z,26.50
2022-07-28T20:09:08.259Z,26.40
2022-07-28T20:12:36.420Z,26.40
2022-07-28T20:16:02.318Z,26.40
2022-07-28T20:19:20.353Z,26.40
2022-07-28T20:22:38.381Z,26.40
2022-07-28T20:25:56.410Z,26.40
2022-07-28T20:29:26.449Z,26.40
2022-07-28T20:32:44.479Z,26.40
2022-07-28T20:36:02.505Z,26.40
2022-07-28T20:39:43.236Z,26.40
2022-07-28T20:42:56.567Z,26.40
2022-07-28T20:46:20.645Z,26.40
2022-07-28T20:49:38.629Z,26.40
2022-07-28T20:52:56.660Z,26.40
2022-07-28T20:56:14.694Z,26.30
2022-07-28T20:59:32.719Z,26.40
2022-07-28T21:03:02.823Z,26.30
2022-07-28T21:10:41.022Z,26.30
2022-07-28T23:12:27.755Z,26.10
2022-07-28T23:15:58.769Z,26.10
2022-07-28T23:46:40.204Z,26.00
2022-07-28T23:57:10.212Z,26.00
